KSIK/SIK METAR and TAF weather

Enter ICAO airport designator
Station Type Date Time Source
KSIK METAR 2020/03/29 12:35 UTC NOAA

KSIK 291235Z AUTO 25011KT 10SM CLR 12/05 A2995 RMK AO2


Station Type Date Time Source
KSIK Decoded METAR 2020/03/29 12:35 UTC NOAA

Station name not available
Mar 29, 2020 - 08:35 AM EDT / 2020.03.29 1235 UTC
Wind: from the WSW (250 degrees) at 13 MPH (11 KT):0
Visibility: 10 mile(s):0
Sky conditions: clear
Temperature: 53 F (12 C)
Dew Point: 41 F (5 C)
Relative Humidity: 62%
Pressure (altimeter): 29.95 in. Hg (1014 hPa)
ob: KSIK 291235Z AUTO 25011KT 10SM CLR 12/05 A2995 RMK AO2
cycle: 12

Station Type Date Time Source
KSIK TAF UTC NOAA

Error!

Example: see airport list